createdAt,value
2023-04-23T00:00:07.136Z,13.45
2023-04-23T00:02:34.012Z,13.49
2023-04-23T00:05:06.060Z,13.55
2023-04-23T00:07:36.021Z,13.48
2023-04-23T00:10:05.749Z,13.37
2023-04-23T00:12:33.291Z,13.34
2023-04-23T00:15:01.634Z,13.37
2023-04-23T00:17:28.585Z,13.37
2023-04-23T00:19:55.543Z,13.29
2023-04-23T00:22:22.509Z,13.21
2023-04-23T00:24:50.506Z,13.13
2023-04-23T00:27:18.243Z,13.07
2023-04-23T00:29:46.335Z,13.03
2023-04-23T00:32:16.547Z,12.99
2023-04-23T00:34:43.193Z,12.88
2023-04-23T00:37:10.855Z,12.95
2023-04-23T00:39:38.919Z,12.91
2023-04-23T00:42:12.127Z,12.81
2023-04-23T00:44:42.234Z,12.81
2023-04-23T00:47:09.132Z,12.90
2023-04-23T00:49:36.005Z,12.72
2023-04-23T00:52:04.251Z,12.64
2023-04-23T00:54:32.553Z,12.68
2023-04-23T00:56:59.192Z,12.55
2023-04-23T00:59:26.381Z,12.55
2023-04-23T01:01:53.115Z,12.53
2023-04-23T01:04:20.879Z,12.44
2023-04-23T01:06:48.491Z,12.47
2023-04-23T01:09:16.059Z,12.49
2023-04-23T01:11:46.239Z,12.47
2023-04-23T01:14:13.754Z,12.29
2023-04-23T01:16:41.031Z,12.25
2023-04-23T01:19:12.428Z,12.22
2023-04-23T01:21:41.789Z,12.21
2023-04-23T01:24:08.670Z,12.21
2023-04-23T01:26:36.030Z,12.24
2023-04-23T01:29:06.126Z,12.17
2023-04-23T01:31:33.549Z,12.23
2023-04-23T01:34:00.443Z,12.06
2023-04-23T01:36:27.261Z,12.04
2023-04-23T01:38:54.753Z,12.01
2023-04-23T01:41:21.258Z,11.85
2023-04-23T01:43:49.081Z,11.89
2023-04-23T01:46:18.075Z,11.99
2023-04-23T01:48:44.670Z,11.85
2023-04-23T01:51:12.521Z,11.78
2023-04-23T01:53:40.455Z,11.69
2023-04-23T01:56:09.891Z,11.82
2023-04-23T01:58:37.352Z,11.93
2023-04-23T02:01:04.123Z,11.92
2023-04-23T02:03:31.068Z,12.02
2023-04-23T02:05:58.728Z,11.93
2023-04-23T02:08:25.216Z,12.04
2023-04-23T02:10:51.953Z,12.05
2023-04-23T02:13:19.601Z,11.98
2023-04-23T02:15:46.110Z,11.94
2023-04-23T02:18:13.008Z,11.90
2023-04-23T02:20:41.625Z,11.90
2023-04-23T02:23:08.847Z,11.81
2023-04-23T02:25:38.388Z,11.58
2023-04-23T02:28:07.391Z,11.36
2023-04-23T02:30:34.639Z,11.27
2023-04-23T02:33:01.309Z,11.14
2023-04-23T02:35:27.906Z,11.26
2023-04-23T02:37:59.486Z,11.16
2023-04-23T02:40:26.040Z,11.16
2023-04-23T02:42:53.313Z,11.15
2023-04-23T02:45:21.878Z,11.15
2023-04-23T02:47:49.932Z,10.93
2023-04-23T02:50:18.146Z,10.95
2023-04-23T02:52:44.995Z,11.01
2023-04-23T02:55:12.790Z,10.92
2023-04-23T02:57:40.544Z,10.88
2023-04-23T03:00:09.618Z,10.87
2023-04-23T03:02:37.604Z,10.85
2023-04-23T03:05:05.255Z,10.74
2023-04-23T03:07:33.943Z,10.62
2023-04-23T03:10:01.685Z,10.61
2023-04-23T03:12:28.381Z,10.52
2023-04-23T03:14:55.192Z,10.57
2023-04-23T03:17:22.925Z,10.59
2023-04-23T03:19:49.991Z,10.72
2023-04-23T03:22:16.490Z,10.69
2023-04-23T03:24:50.138Z,10.69
2023-04-23T03:27:22.936Z,10.67
2023-04-23T03:29:49.874Z,10.69
2023-04-23T03:32:16.712Z,10.52
2023-04-23T03:34:43.605Z,10.58
2023-04-23T03:37:13.676Z,10.56
2023-04-23T03:39:41.453Z,10.45
2023-04-23T03:42:07.995Z,10.39
2023-04-23T03:44:34.715Z,10.24
2023-04-23T03:47:01.268Z,10.29
2023-04-23T03:49:28.036Z,10.35
2023-04-23T03:51:54.549Z,10.44
2023-04-23T03:54:24.808Z,10.47
2023-04-23T03:56:51.157Z,10.44
2023-04-23T03:59:20.263Z,10.37
2023-04-23T04:01:51.162Z,10.30
2023-04-23T04:04:19.990Z,10.24
2023-04-23T04:06:48.574Z,10.13
2023-04-23T04:09:15.769Z,10.13
2023-04-23T04:11:42.238Z,10.04
2023-04-23T04:14:09.153Z,10.07
2023-04-23T04:16:35.693Z,10.06
2023-04-23T04:19:03.135Z,9.84
2023-04-23T04:21:32.626Z,9.89
2023-04-23T04:24:08.875Z,9.90
2023-04-23T04:26:38.296Z,9.95
2023-04-23T04:29:04.987Z,9.95
2023-04-23T04:31:32.319Z,9.93
2023-04-23T04:34:00.504Z,9.83
2023-04-23T04:36:28.663Z,9.97
2023-04-23T04:38:56.593Z,10.06
2023-04-23T04:41:26.499Z,9.89
2023-04-23T04:43:55.023Z,9.90
2023-04-23T04:46:21.649Z,9.83
2023-04-23T04:48:51.135Z,9.85
2023-04-23T04:51:18.317Z,9.84
2023-04-23T04:53:46.685Z,9.72
2023-04-23T04:56:13.208Z,9.80
2023-04-23T04:58:42.019Z,9.76
2023-04-23T05:01:09.750Z,9.70
2023-04-23T05:03:37.933Z,9.71
2023-04-23T05:06:06.134Z,9.75
2023-04-23T05:08:34.253Z,9.80
2023-04-23T05:11:03.422Z,9.86
2023-04-23T05:13:29.965Z,9.97
2023-04-23T05:15:56.482Z,9.92
2023-04-23T05:18:25.285Z,9.99
2023-04-23T05:20:52.003Z,9.91
2023-04-23T05:23:19.891Z,9.84
2023-04-23T05:25:46.735Z,9.77
2023-04-23T05:28:13.258Z,9.87
2023-04-23T05:30:39.874Z,9.92
2023-04-23T05:33:07.462Z,9.96
2023-04-23T05:35:34.186Z,9.94
2023-04-23T05:38:02.721Z,9.87
2023-04-23T05:40:32.209Z,9.89
2023-04-23T05:43:01.176Z,9.92
2023-04-23T05:45:27.816Z,9.97
2023-04-23T05:47:57.762Z,10.11
2023-04-23T05:50:31.247Z,10.16
2023-04-23T05:52:58.100Z,10.13
2023-04-23T05:55:26.946Z,10.18
2023-04-23T05:57:54.650Z,10.22
2023-04-23T06:00:23.793Z,10.36
2023-04-23T06:02:50.555Z,10.34
2023-04-23T06:05:17.513Z,10.50
2023-04-23T06:07:45.355Z,10.53
2023-04-23T06:10:13.533Z,10.59
2023-04-23T06:12:41.960Z,10.64
2023-04-23T06:15:09.830Z,10.83
2023-04-23T06:17:37.510Z,10.84
2023-04-23T06:20:07.470Z,11.01
2023-04-23T06:22:33.990Z,11.13
2023-04-23T06:25:00.832Z,11.28
2023-04-23T06:27:30.625Z,11.48
2023-04-23T06:29:59.450Z,11.65
2023-04-23T06:32:30.369Z,11.80
2023-04-23T06:35:01.359Z,11.91
2023-04-23T06:37:33.945Z,12.07
2023-04-23T06:40:00.607Z,11.72
2023-04-23T06:42:27.184Z,11.72
2023-04-23T06:44:53.824Z,11.65
2023-04-23T06:47:22.038Z,11.71
2023-04-23T06:49:48.553Z,11.77
2023-04-23T06:52:15.669Z,11.77
2023-04-23T06:54:45.466Z,11.87
2023-04-23T06:57:12.023Z,11.90
2023-04-23T06:59:38.585Z,12.05
2023-04-23T07:02:05.725Z,12.30
2023-04-23T07:04:32.603Z,12.28
2023-04-23T07:07:00.223Z,12.30
2023-04-23T07:09:40.129Z,12.24
2023-04-23T07:12:07.682Z,12.43
2023-04-23T07:14:34.175Z,12.80
2023-04-23T07:17:01.754Z,12.71
2023-04-23T07:19:29.652Z,12.91
2023-04-23T07:21:56.757Z,12.91
2023-04-23T07:24:24.127Z,12.89
2023-04-23T07:26:51.180Z,12.58
2023-04-23T07:29:17.708Z,12.87
2023-04-23T07:31:46.330Z,12.99
2023-04-23T07:34:12.998Z,13.16
2023-04-23T07:36:39.529Z,13.38
2023-04-23T07:39:07.454Z,13.52
2023-04-23T07:41:34.226Z,13.28
2023-04-23T07:44:00.999Z,13.66
2023-04-23T07:46:28.030Z,13.86
2023-04-23T07:48:55.507Z,13.84
2023-04-23T07:51:22.562Z,14.01
2023-04-23T07:53:51.510Z,14.32
2023-04-23T07:56:20.760Z,14.15
2023-04-23T07:58:47.218Z,14.37
2023-04-23T08:01:14.054Z,14.47
2023-04-23T08:03:42.253Z,14.76
2023-04-23T08:06:12.149Z,14.87
2023-04-23T08:08:47.203Z,14.89
2023-04-23T08:11:13.947Z,15.19
2023-04-23T08:13:40.420Z,15.10
2023-04-23T08:16:07.302Z,14.87
2023-04-23T08:18:35.292Z,15.16
2023-04-23T08:21:02.098Z,15.03
2023-04-23T08:23:29.823Z,15.01
2023-04-23T08:25:56.853Z,15.09
2023-04-23T08:28:23.587Z,15.31
2023-04-23T08:30:51.006Z,15.32
2023-04-23T08:33:18.822Z,15.48
2023-04-23T08:35:45.517Z,14.89
2023-04-23T08:38:16.191Z,14.89
2023-04-23T08:40:42.871Z,15.27
2023-04-23T08:43:16.607Z,15.44
2023-04-23T08:45:45.820Z,15.82
2023-04-23T08:48:14.272Z,15.97
2023-04-23T08:50:43.673Z,15.93
2023-04-23T08:53:12.302Z,16.35
2023-04-23T08:55:38.779Z,16.34
2023-04-23T08:58:06.385Z,16.52
2023-04-23T09:00:34.439Z,16.45
2023-04-23T09:03:02.399Z,16.88
2023-04-23T09:05:29.379Z,17.19
2023-04-23T09:07:56.627Z,16.95
2023-04-23T09:10:25.388Z,17.03
2023-04-23T09:12:51.849Z,16.84
2023-04-23T09:15:20.254Z,16.93
2023-04-23T09:17:50.078Z,17.08
2023-04-23T09:20:18.424Z,17.18
2023-04-23T09:22:48.919Z,17.25
2023-04-23T09:25:18.347Z,16.94
2023-04-23T09:27:46.013Z,16.86
2023-04-23T09:30:13.979Z,17.38
2023-04-23T09:32:44.762Z,17.35
2023-04-23T09:35:15.952Z,17.09
2023-04-23T09:37:43.830Z,17.17
2023-04-23T09:40:10.906Z,17.26
2023-04-23T09:42:41.283Z,17.60
2023-04-23T09:45:09.151Z,17.69
2023-04-23T09:47:42.413Z,17.38
2023-04-23T09:50:11.951Z,16.41
2023-04-23T09:52:41.072Z,16.66
2023-04-23T09:55:09.584Z,16.85
2023-04-23T09:57:37.481Z,17.52
2023-04-23T10:00:19.337Z,17.14
2023-04-23T10:02:49.542Z,17.82
2023-04-23T10:05:24.166Z,18.21
2023-04-23T10:07:53.064Z,18.20
2023-04-23T10:10:20.151Z,18.86
2023-04-23T10:12:54.845Z,18.61
2023-04-23T10:15:21.963Z,19.17
2023-04-23T10:17:51.608Z,18.91
2023-04-23T10:20:21.030Z,18.15
2023-04-23T10:22:48.705Z,17.79
2023-04-23T10:25:15.321Z,17.55
2023-04-23T10:27:52.207Z,17.41
2023-04-23T10:30:21.225Z,17.21
2023-04-23T10:32:48.782Z,17.22
2023-04-23T10:35:15.999Z,17.88
2023-04-23T10:37:42.722Z,17.96
2023-04-23T10:40:14.650Z,17.82
2023-04-23T10:42:43.957Z,17.67
2023-04-23T10:45:24.918Z,17.38
2023-04-23T10:47:56.636Z,17.35
2023-04-23T10:50:34.336Z,17.18
2023-04-23T10:53:01.626Z,17.56
2023-04-23T10:55:29.296Z,17.67
2023-04-23T10:58:08.409Z,17.16
2023-04-23T11:00:41.203Z,17.07
2023-04-23T11:03:37.340Z,17.20
2023-04-23T11:06:06.444Z,17.17
2023-04-23T11:08:35.158Z,17.16
2023-04-23T11:11:03.503Z,17.05
2023-04-23T11:13:30.300Z,17.23
2023-04-23T11:16:22.367Z,18.12
2023-04-23T11:18:59.892Z,17.65
2023-04-23T11:22:04.538Z,17.63
2023-04-23T11:24:32.631Z,17.61
2023-04-23T11:27:02.101Z,16.85
2023-04-23T11:29:30.115Z,16.94
2023-04-23T11:32:03.123Z,17.56
2023-04-23T11:34:30.270Z,17.98
2023-04-23T11:36:58.546Z,18.58
2023-04-23T11:39:27.321Z,18.09
2023-04-23T11:41:55.639Z,18.29
2023-04-23T11:44:24.015Z,18.23
2023-04-23T11:46:50.803Z,18.11
2023-04-23T11:49:17.832Z,18.10
2023-04-23T11:51:45.907Z,17.85
2023-04-23T11:54:13.495Z,17.91
2023-04-23T11:56:41.579Z,17.72
2023-04-23T11:59:12.624Z,17.28
2023-04-23T12:01:46.612Z,16.54
2023-04-23T12:04:30.315Z,15.82
2023-04-23T12:07:15.758Z,14.56
2023-04-23T12:09:49.812Z,13.94
2023-04-23T12:12:16.620Z,13.77
2023-04-23T12:14:43.180Z,13.16
2023-04-23T12:17:11.117Z,12.67
2023-04-23T12:19:39.597Z,12.23
2023-04-23T12:22:08.718Z,12.29
2023-04-23T12:24:55.144Z,12.35
2023-04-23T12:27:23.622Z,12.25
2023-04-23T12:29:58.949Z,12.25
2023-04-23T12:32:26.862Z,12.20
2023-04-23T12:34:58.173Z,12.12
2023-04-23T12:37:29.679Z,12.27
2023-04-23T12:40:00.870Z,12.59
2023-04-23T12:42:27.728Z,12.72
2023-04-23T12:44:58.476Z,13.98
2023-04-23T12:47:27.547Z,15.01
2023-04-23T12:49:57.204Z,15.66
2023-04-23T12:52:25.922Z,16.20
2023-04-23T12:54:56.847Z,15.93
2023-04-23T12:57:24.788Z,16.05
2023-04-23T12:59:52.260Z,15.76
2023-04-23T13:02:18.969Z,15.97
2023-04-23T13:04:46.490Z,16.10
2023-04-23T13:07:12.960Z,16.32
2023-04-23T13:09:39.440Z,16.59
2023-04-23T13:12:06.391Z,16.85
2023-04-23T13:14:32.905Z,17.13
2023-04-23T13:16:59.825Z,17.19
2023-04-23T13:19:26.446Z,16.69
2023-04-23T13:25:34.397Z,16.69
2023-04-23T13:28:01.286Z,16.91
2023-04-23T13:30:30.338Z,16.99
2023-04-23T13:32:58.947Z,17.07
2023-04-23T13:35:27.554Z,16.97
2023-04-23T13:37:55.184Z,16.80
2023-04-23T13:40:23.087Z,16.62
2023-04-23T13:42:50.324Z,16.49
2023-04-23T13:45:17.116Z,16.47
2023-04-23T13:47:45.857Z,16.56
2023-04-23T13:50:13.334Z,16.49
2023-04-23T13:52:39.914Z,16.52
2023-04-23T13:55:07.675Z,16.70
2023-04-23T13:57:34.899Z,16.79
2023-04-23T14:00:01.420Z,16.78
2023-04-23T14:02:28.080Z,17.08
2023-04-23T14:04:58.039Z,17.40
2023-04-23T14:07:24.542Z,17.91
2023-04-23T14:09:53.401Z,18.10
2023-04-23T14:12:20.955Z,18.71
2023-04-23T14:14:49.709Z,19.07
2023-04-23T14:17:16.305Z,19.60
2023-04-23T14:19:43.864Z,19.51
2023-04-23T14:22:10.479Z,18.95
2023-04-23T14:24:45.074Z,18.53
2023-04-23T14:27:11.799Z,18.95
2023-04-23T14:29:41.519Z,18.84
2023-04-23T14:32:09.059Z,18.84
2023-04-23T14:34:36.789Z,18.48
2023-04-23T14:37:05.371Z,18.15
2023-04-23T14:39:34.220Z,18.12
2023-04-23T14:42:08.583Z,17.77
2023-04-23T14:44:35.639Z,17.58
2023-04-23T14:47:09.830Z,17.60
2023-04-23T14:49:37.483Z,17.75
2023-04-23T14:52:04.076Z,17.54
2023-04-23T14:54:30.573Z,17.74
2023-04-23T14:56:57.044Z,17.34
2023-04-23T14:59:23.557Z,17.39
2023-04-23T15:01:50.093Z,17.34
2023-04-23T15:04:16.773Z,17.38
2023-04-23T15:06:43.617Z,17.08
2023-04-23T15:09:10.126Z,17.01
2023-04-23T15:11:38.667Z,16.94
2023-04-23T15:14:09.361Z,17.08
2023-04-23T15:16:48.324Z,17.33
2023-04-23T15:19:17.889Z,17.01
2023-04-23T15:21:44.961Z,17.03
2023-04-23T15:24:11.439Z,16.95
2023-04-23T15:26:37.991Z,16.88
2023-04-23T15:29:05.106Z,16.76
2023-04-23T15:31:31.616Z,16.39
2023-04-23T15:33:58.140Z,16.17
2023-04-23T15:36:24.616Z,15.92
2023-04-23T15:38:51.117Z,15.67
2023-04-23T15:41:17.580Z,15.31
2023-04-23T15:43:44.149Z,15.27
2023-04-23T15:46:10.648Z,15.02
2023-04-23T15:48:37.147Z,15.20
2023-04-23T15:51:03.769Z,14.95
2023-04-23T15:53:30.235Z,14.99
2023-04-23T15:55:57.419Z,14.99
2023-04-23T15:58:23.880Z,15.05
2023-04-23T16:00:50.392Z,14.88
2023-04-23T16:03:17.067Z,14.85
2023-04-23T16:05:44.685Z,14.82
2023-04-23T16:08:11.898Z,14.86
2023-04-23T16:10:38.491Z,14.90
2023-04-23T16:13:06.067Z,14.97
2023-04-23T16:15:32.654Z,15.06
2023-04-23T16:17:59.905Z,15.09
2023-04-23T16:20:27.902Z,15.10
2023-04-23T16:22:54.676Z,15.32
2023-04-23T16:25:21.168Z,15.44
2023-04-23T16:27:47.767Z,15.36
2023-04-23T16:30:14.300Z,15.41
2023-04-23T16:32:40.829Z,15.50
2023-04-23T16:35:08.269Z,15.52
2023-04-23T16:37:34.721Z,15.52
2023-04-23T16:40:02.102Z,15.54
2023-04-23T16:42:28.612Z,15.48
2023-04-23T16:44:55.219Z,15.48
2023-04-23T16:47:21.938Z,15.50
2023-04-23T16:49:48.440Z,15.47
2023-04-23T16:52:14.936Z,15.39
2023-04-23T16:54:41.516Z,15.37
2023-04-23T16:57:08.143Z,15.28
2023-04-23T16:59:34.688Z,15.24
2023-04-23T17:02:01.340Z,15.31
2023-04-23T17:04:28.025Z,15.36
2023-04-23T17:06:54.563Z,15.36
2023-04-23T17:09:21.041Z,15.37
2023-04-23T17:11:47.496Z,15.30
2023-04-23T17:14:13.987Z,15.28
2023-04-23T17:16:41.574Z,15.16
2023-04-23T17:19:08.157Z,15.19
2023-04-23T17:21:34.644Z,15.13
2023-04-23T17:24:01.269Z,15.12
2023-04-23T17:26:27.775Z,15.12
2023-04-23T17:28:54.305Z,15.01
2023-04-23T17:31:20.925Z,15.06
2023-04-23T17:33:49.319Z,15.00
2023-04-23T17:36:17.077Z,14.99
2023-04-23T17:38:43.689Z,14.92
2023-04-23T17:41:10.330Z,14.89
2023-04-23T17:43:36.821Z,14.89
2023-04-23T17:46:03.526Z,14.86
2023-04-23T17:48:30.257Z,14.79
2023-04-23T17:50:57.055Z,14.61
2023-04-23T17:53:23.835Z,14.61
2023-04-23T17:55:50.324Z,14.54
2023-04-23T17:58:17.052Z,14.55
2023-04-23T18:00:44.057Z,14.54
2023-04-23T18:03:11.761Z,14.53
2023-04-23T18:05:38.475Z,14.48
2023-04-23T18:08:06.841Z,14.52
2023-04-23T18:10:33.436Z,14.27
2023-04-23T18:13:02.849Z,13.95
2023-04-23T18:15:32.097Z,14.00
2023-04-23T18:17:59.103Z,14.00
2023-04-23T18:20:26.519Z,13.68
2023-04-23T18:22:54.273Z,13.54
2023-04-23T18:25:20.809Z,13.64
2023-04-23T18:27:47.805Z,13.70
2023-04-23T18:30:15.335Z,13.79
2023-04-23T18:32:44.309Z,13.85
2023-04-23T18:35:10.912Z,13.92
2023-04-23T18:37:47.047Z,13.96
2023-04-23T18:40:13.563Z,13.96
2023-04-23T18:42:40.218Z,13.92
2023-04-23T18:45:07.719Z,13.94
2023-04-23T18:47:44.768Z,13.85
2023-04-23T18:50:41.685Z,13.94
2023-04-23T18:53:08.186Z,13.63
2023-04-23T18:55:34.675Z,13.54
2023-04-23T18:58:01.214Z,13.56
2023-04-23T19:00:30.122Z,13.44
2023-04-23T19:02:56.712Z,13.51
2023-04-23T19:05:23.248Z,13.51
2023-04-23T19:07:49.860Z,13.74
2023-04-23T19:10:16.714Z,13.84
2023-04-23T19:12:43.932Z,13.86
2023-04-23T19:15:10.993Z,13.83
2023-04-23T19:17:38.750Z,13.83
2023-04-23T19:20:08.035Z,13.79
2023-04-23T19:22:34.511Z,13.72
2023-04-23T19:25:01.072Z,13.51
2023-04-23T19:27:27.819Z,13.47
2023-04-23T19:29:54.511Z,13.22
2023-04-23T19:32:22.061Z,13.04
2023-04-23T19:34:48.516Z,12.89
2023-04-23T19:37:15.011Z,12.79
2023-04-23T19:39:41.659Z,12.83
2023-04-23T19:42:08.341Z,12.94
2023-04-23T19:44:34.819Z,12.91
2023-04-23T19:47:01.512Z,12.88
2023-04-23T19:49:28.047Z,12.92
2023-04-23T19:51:54.525Z,13.09
2023-04-23T19:54:22.806Z,13.04
2023-04-23T19:56:50.501Z,13.18
2023-04-23T19:59:20.818Z,13.10
2023-04-23T20:01:47.915Z,12.89
2023-04-23T20:04:14.554Z,12.84
2023-04-23T20:06:41.216Z,12.71
2023-04-23T20:09:08.011Z,12.66
2023-04-23T20:11:35.269Z,12.54
2023-04-23T20:14:02.023Z,12.27
2023-04-23T20:16:28.620Z,12.19
2023-04-23T20:18:58.101Z,12.09
2023-04-23T20:21:24.782Z,12.04
2023-04-23T20:23:51.403Z,11.98
2023-04-23T20:26:18.730Z,11.83
2023-04-23T20:28:47.306Z,11.75
2023-04-23T20:31:14.412Z,11.64
2023-04-23T20:33:41.307Z,11.65
2023-04-23T20:36:11.313Z,11.61
2023-04-23T20:38:38.055Z,11.67
2023-04-23T20:41:05.605Z,11.50
2023-04-23T20:43:33.306Z,11.50
2023-04-23T20:46:00.156Z,11.51
2023-04-23T20:48:29.247Z,11.54
2023-04-23T20:50:56.630Z,11.42
2023-04-23T20:53:23.213Z,11.43
2023-04-23T20:55:49.784Z,11.49
2023-04-23T20:58:16.472Z,11.43
2023-04-23T21:00:42.994Z,11.45
2023-04-23T21:03:09.559Z,11.44
2023-04-23T21:05:37.534Z,11.40
2023-04-23T21:08:04.010Z,11.35
2023-04-23T21:10:30.676Z,11.48
2023-04-23T21:12:57.169Z,11.44
2023-04-23T21:15:23.688Z,11.34
2023-04-23T21:17:50.178Z,11.29
2023-04-23T21:20:16.736Z,11.27
2023-04-23T21:22:44.259Z,11.20
2023-04-23T21:25:10.735Z,11.23
2023-04-23T21:27:37.285Z,11.13
2023-04-23T21:30:10.114Z,11.14
2023-04-23T21:32:36.598Z,11.08
2023-04-23T21:35:03.086Z,10.99
2023-04-23T21:37:31.214Z,11.04
2023-04-23T21:39:57.686Z,11.03
2023-04-23T21:42:24.193Z,11.01
2023-04-23T21:44:50.701Z,11.05
2023-04-23T21:47:17.182Z,10.99
2023-04-23T21:49:44.373Z,10.95
2023-04-23T21:52:10.948Z,11.01
2023-04-23T21:54:39.498Z,11.06
2023-04-23T21:57:06.022Z,11.01
2023-04-23T21:59:32.775Z,11.06
2023-04-23T22:01:59.281Z,11.05
2023-04-23T22:04:27.562Z,11.08
2023-04-23T22:06:54.662Z,11.10
2023-04-23T22:09:21.334Z,11.04
2023-04-23T22:12:01.040Z,11.05
2023-04-23T22:14:27.918Z,11.02
2023-04-23T22:16:55.081Z,11.06
2023-04-23T22:19:21.673Z,11.07
2023-04-23T22:21:48.154Z,11.07
2023-04-23T22:24:14.612Z,11.01
2023-04-23T22:26:41.089Z,11.05
2023-04-23T22:29:07.922Z,11.08
2023-04-23T22:31:34.473Z,11.08
2023-04-23T22:34:01.034Z,11.06
2023-04-23T22:36:28.619Z,11.01
2023-04-23T22:38:56.127Z,10.97
2023-04-23T22:41:22.610Z,11.01
2023-04-23T22:43:49.178Z,10.93
2023-04-23T22:46:15.773Z,10.89
2023-04-23T22:48:44.749Z,10.92
2023-04-23T22:51:11.813Z,10.94
2023-04-23T22:53:38.297Z,10.82
2023-04-23T22:56:04.830Z,10.79
2023-04-23T22:58:33.721Z,10.84
2023-04-23T23:01:00.686Z,10.82
2023-04-23T23:03:27.356Z,10.78
2023-04-23T23:05:53.994Z,10.71
2023-04-23T23:08:20.494Z,10.59
2023-04-23T23:10:46.992Z,10.59
2023-04-23T23:13:13.553Z,10.57
2023-04-23T23:15:40.514Z,10.58
2023-04-23T23:18:07.738Z,10.63
2023-04-23T23:20:34.359Z,10.59
2023-04-23T23:23:00.891Z,10.50
2023-04-23T23:25:27.402Z,10.52
2023-04-23T23:27:53.909Z,10.59
2023-04-23T23:30:20.508Z,10.56
2023-04-23T23:32:47.060Z,10.66
2023-04-23T23:35:13.721Z,10.66
2023-04-23T23:37:40.191Z,10.68
2023-04-23T23:40:07.449Z,10.67
2023-04-23T23:42:33.936Z,10.63
2023-04-23T23:45:00.399Z,10.62
2023-04-23T23:47:26.968Z,10.49
2023-04-23T23:49:53.523Z,10.40
2023-04-23T23:52:20.028Z,10.37
2023-04-23T23:54:46.632Z,10.45
2023-04-23T23:57:13.133Z,10.33
2023-04-23T23:59:39.626Z,10.27
